createdAt,value
2018-06-12T00:02:25.619Z,2.00
2018-06-12T00:04:54.025Z,2.35
2018-06-12T00:07:22.425Z,2.30
2018-06-12T00:09:51.013Z,2.08
2018-06-12T00:12:19.393Z,1.85
2018-06-12T00:14:47.797Z,1.90
2018-06-12T00:17:16.188Z,2.50
2018-06-12T00:19:44.737Z,1.90
2018-06-12T00:22:13.109Z,1.70
2018-06-12T00:24:41.522Z,1.90
2018-06-12T00:27:10.156Z,2.37
2018-06-12T00:29:38.560Z,2.20
2018-06-12T00:32:06.932Z,2.20
2018-06-12T00:34:35.341Z,2.55
2018-06-12T00:37:03.789Z,2.75
2018-06-12T00:39:32.289Z,2.58
2018-06-12T00:42:00.695Z,2.25
2018-06-12T00:44:29.108Z,2.67
2018-06-12T00:46:57.522Z,1.77
2018-06-12T00:49:26.008Z,2.22
2018-06-12T00:51:54.443Z,2.65
2018-06-12T00:54:22.839Z,2.20
2018-06-12T00:57:02.437Z,2.50
2018-06-12T00:59:30.865Z,2.67
2018-06-12T01:01:59.285Z,2.37
2018-06-12T01:04:27.668Z,2.27
2018-06-12T01:06:56.104Z,2.20
2018-06-12T01:09:25.562Z,2.72
2018-06-12T01:11:54.014Z,2.20
2018-06-12T01:14:22.409Z,2.33
2018-06-12T01:16:50.832Z,2.22
2018-06-12T01:19:19.237Z,2.40
2018-06-12T01:21:47.662Z,2.67
2018-06-12T01:24:16.065Z,2.05
2018-06-12T01:26:44.292Z,2.10
2018-06-12T01:29:12.689Z,2.70
2018-06-12T01:31:41.097Z,2.00
2018-06-12T01:34:09.476Z,2.60
2018-06-12T01:36:37.884Z,1.85
2018-06-12T01:39:08.157Z,3.05
2018-06-12T01:41:36.719Z,1.90
2018-06-12T01:44:05.177Z,2.02
2018-06-12T01:46:33.578Z,2.15
2018-06-12T01:49:02.006Z,1.95
2018-06-12T01:51:30.469Z,2.22
2018-06-12T01:53:58.884Z,2.15
2018-06-12T01:56:27.301Z,2.35
2018-06-12T01:58:55.732Z,1.87
2018-06-12T02:01:24.197Z,2.42
2018-06-12T02:03:52.595Z,2.05
2018-06-12T02:06:21.036Z,1.92
2018-06-12T02:08:49.443Z,2.12
2018-06-12T02:11:17.867Z,2.00
2018-06-12T02:13:46.276Z,2.50
2018-06-12T02:16:14.695Z,2.00
2018-06-12T02:18:43.090Z,2.00
2018-06-12T02:21:11.499Z,2.10
2018-06-12T02:23:39.592Z,2.30
2018-06-12T02:26:08.021Z,2.27
2018-06-12T02:28:36.408Z,2.10
2018-06-12T02:31:04.817Z,2.20
2018-06-12T02:33:33.192Z,1.87
2018-06-12T02:36:01.606Z,2.42
2018-06-12T02:38:29.988Z,2.22
2018-06-12T02:40:58.403Z,2.58
2018-06-12T02:43:26.817Z,2.20
2018-06-12T02:45:55.335Z,2.35
2018-06-12T02:48:23.741Z,2.20
2018-06-12T02:50:52.153Z,2.08
2018-06-12T02:53:20.557Z,2.77
2018-06-12T02:55:48.933Z,3.05
2018-06-12T02:58:17.357Z,2.58
2018-06-12T03:00:45.819Z,2.90
2018-06-12T03:03:14.225Z,2.80
2018-06-12T03:05:42.633Z,2.35
2018-06-12T03:08:11.041Z,2.60
2018-06-12T03:10:39.420Z,2.90
2018-06-12T03:13:08.074Z,3.30
2018-06-12T03:15:36.481Z,2.50
2018-06-12T03:18:04.904Z,2.95
2018-06-12T03:20:44.520Z,3.00
2018-06-12T03:23:12.965Z,2.92
2018-06-12T03:25:41.361Z,3.40
2018-06-12T03:28:09.801Z,2.98
2018-06-12T03:30:38.193Z,3.40
2018-06-12T03:33:06.854Z,2.58
2018-06-12T03:35:35.253Z,2.80
2018-06-12T03:38:03.376Z,3.72
2018-06-12T03:40:31.765Z,2.90
2018-06-12T03:43:00.203Z,2.60
2018-06-12T03:45:28.583Z,2.83
2018-06-12T03:47:57.012Z,3.27
2018-06-12T03:50:25.439Z,3.10
2018-06-12T03:52:53.874Z,3.27
2018-06-12T03:55:22.297Z,2.77
2018-06-12T03:57:50.735Z,3.05
2018-06-12T04:00:19.113Z,3.20
2018-06-12T04:02:47.508Z,2.87
2018-06-12T04:05:16.041Z,3.25
2018-06-12T04:07:44.502Z,3.17
2018-06-12T04:10:12.880Z,4.03
2018-06-12T04:12:41.296Z,4.42
2018-06-12T04:15:09.699Z,3.72
2018-06-12T04:17:38.129Z,5.97
2018-06-12T04:20:06.709Z,5.67
2018-06-12T04:22:35.121Z,5.53
2018-06-12T04:25:03.579Z,6.33
2018-06-12T04:27:32.053Z,6.25
2018-06-12T04:30:00.469Z,5.78
2018-06-12T04:32:28.860Z,6.60
2018-06-12T04:34:57.277Z,5.90
2018-06-12T04:37:25.657Z,5.87
2018-06-12T04:39:54.069Z,5.90
2018-06-12T04:42:22.457Z,5.80
2018-06-12T04:44:50.873Z,5.33
2018-06-12T04:47:19.281Z,5.47
2018-06-12T04:49:47.396Z,6.22
2018-06-12T04:52:15.820Z,5.85
2018-06-12T04:54:44.294Z,5.53
2018-06-12T04:57:12.640Z,5.85
2018-06-12T04:59:41.080Z,5.83
2018-06-12T05:02:09.484Z,5.40
2018-06-12T05:04:37.906Z,5.90
2018-06-12T05:07:06.617Z,5.47
2018-06-12T05:09:35.017Z,6.25
2018-06-12T05:12:03.408Z,6.72
2018-06-12T05:14:32.050Z,6.40
2018-06-12T05:17:00.482Z,7.28
2018-06-12T05:19:28.902Z,6.90
2018-06-12T05:21:57.288Z,7.00
2018-06-12T05:24:25.775Z,7.65
2018-06-12T05:26:54.388Z,8.60
2018-06-12T05:29:22.801Z,8.50
2018-06-12T05:31:51.242Z,9.05
2018-06-12T05:34:19.644Z,9.25
2018-06-12T05:36:48.117Z,7.85
2018-06-12T05:39:16.534Z,8.70
2018-06-12T05:41:44.937Z,9.90
2018-06-12T05:44:13.348Z,9.50
2018-06-12T05:46:41.794Z,9.68
2018-06-12T05:49:10.204Z,9.50
2018-06-12T05:51:38.585Z,9.40
2018-06-12T05:54:07.197Z,9.13
2018-06-12T05:56:35.723Z,9.10
2018-06-12T05:59:04.209Z,8.40
2018-06-12T06:01:32.601Z,7.65
2018-06-12T06:04:01.036Z,7.75
2018-06-12T06:06:29.542Z,6.72
2018-06-12T06:08:57.635Z,6.55
2018-06-12T06:11:26.033Z,7.00
2018-06-12T06:13:54.440Z,6.80
2018-06-12T06:16:22.917Z,6.00
2018-06-12T06:18:51.333Z,7.05
2018-06-12T06:21:19.777Z,6.47
2018-06-12T06:23:48.253Z,5.75
2018-06-12T06:26:16.653Z,6.30
2018-06-12T06:28:45.051Z,5.22
2018-06-12T06:31:13.484Z,5.10
2018-06-12T06:33:41.880Z,5.28
2018-06-12T06:36:10.295Z,5.80
2018-06-12T06:38:38.709Z,5.33
2018-06-12T06:41:07.142Z,4.30
2018-06-12T06:43:35.556Z,4.80
2018-06-12T06:46:04.007Z,4.35
2018-06-12T06:48:32.401Z,4.40
2018-06-12T06:51:00.849Z,4.08
2018-06-12T06:53:29.231Z,4.33
2018-06-12T06:55:57.645Z,3.98
2018-06-12T06:58:26.054Z,3.17
2018-06-12T07:00:54.457Z,3.70
2018-06-12T07:03:22.862Z,3.85
2018-06-12T07:05:50.994Z,3.77
2018-06-12T07:08:19.359Z,2.70
2018-06-12T07:10:47.836Z,3.50
2018-06-12T07:13:16.224Z,2.40
2018-06-12T07:15:44.648Z,2.33
2018-06-12T07:18:13.024Z,2.10
2018-06-12T07:21:19.552Z,2.40
2018-06-12T07:23:48.036Z,1.95
2018-06-12T07:26:16.607Z,2.10
2018-06-12T07:28:44.983Z,2.40
2018-06-12T07:31:13.562Z,2.20
2018-06-12T07:33:41.992Z,2.27
2018-06-12T07:36:10.404Z,1.70
2018-06-12T07:38:38.812Z,2.05
2018-06-12T07:41:07.283Z,1.45
2018-06-12T07:43:35.792Z,1.62
2018-06-12T07:46:04.317Z,1.17
2018-06-12T07:48:32.753Z,1.42
2018-06-12T07:51:01.186Z,1.00
2018-06-12T07:53:29.601Z,1.25
2018-06-12T07:55:58.021Z,4.62
2018-06-12T07:58:26.559Z,1.45
2018-06-12T08:00:55.016Z,1.27
2018-06-12T08:03:23.465Z,1.55
2018-06-12T08:05:51.856Z,1.40
2018-06-12T08:08:20.242Z,1.27
2018-06-12T08:10:48.665Z,1.27
2018-06-12T08:13:17.048Z,1.30
2018-06-12T08:15:45.515Z,1.40
2018-06-12T08:18:13.896Z,1.77
2018-06-12T08:20:42.264Z,1.42
2018-06-12T08:23:10.685Z,1.62
2018-06-12T08:25:39.049Z,1.30
2018-06-12T08:28:07.529Z,1.65
2018-06-12T08:30:35.949Z,1.45
2018-06-12T08:33:04.389Z,1.40
2018-06-12T08:35:32.776Z,1.62
2018-06-12T08:38:01.239Z,1.50
2018-06-12T08:40:29.637Z,1.40
2018-06-12T08:42:58.045Z,1.47
2018-06-12T08:45:26.435Z,1.50
2018-06-12T08:47:54.848Z,1.52
2018-06-12T08:50:23.258Z,1.80
2018-06-12T08:52:51.697Z,1.60
2018-06-12T08:55:20.297Z,1.30
2018-06-12T08:57:48.712Z,1.40
2018-06-12T09:00:17.149Z,1.60
2018-06-12T09:02:45.615Z,1.40
2018-06-12T09:05:14.157Z,1.50
2018-06-12T09:07:42.568Z,1.50
2018-06-12T09:10:10.952Z,1.92
2018-06-12T09:12:39.448Z,1.12
2018-06-12T09:15:07.950Z,1.40
2018-06-12T09:17:36.489Z,1.22
2018-06-12T09:20:04.983Z,1.95
2018-06-12T09:22:33.432Z,1.15
2018-06-12T09:25:01.855Z,1.47
2018-06-12T09:27:34.480Z,1.35
2018-06-12T09:30:03.096Z,1.15
2018-06-12T09:32:31.718Z,1.22
2018-06-12T09:35:00.093Z,1.10
2018-06-12T09:37:28.560Z,1.27
2018-06-12T09:39:57.057Z,1.50
2018-06-12T09:42:25.466Z,1.40
2018-06-12T09:44:53.877Z,1.22
2018-06-12T09:47:22.274Z,1.10
2018-06-12T09:49:50.697Z,1.35
2018-06-12T09:52:19.165Z,2.10
2018-06-12T09:54:47.574Z,1.20
2018-06-12T09:57:16.016Z,0.80
2018-06-12T09:59:44.579Z,1.20
2018-06-12T10:02:13.005Z,1.20
2018-06-12T10:04:43.633Z,1.52
2018-06-12T10:07:13.837Z,1.07
2018-06-12T10:09:42.217Z,1.17
2018-06-12T10:12:10.632Z,1.00
2018-06-12T10:14:38.729Z,1.15
2018-06-12T10:17:07.173Z,1.20
2018-06-12T10:19:35.561Z,1.07
2018-06-12T10:22:03.970Z,1.27
2018-06-12T10:24:32.429Z,0.98
2018-06-12T10:27:00.824Z,1.40
2018-06-12T10:29:29.240Z,1.65
2018-06-12T10:31:57.892Z,1.30
2018-06-12T10:34:26.304Z,1.10
2018-06-12T10:36:54.678Z,1.30
2018-06-12T10:39:23.077Z,1.10
2018-06-12T10:41:51.482Z,1.50
2018-06-12T10:44:19.910Z,1.85
2018-06-12T10:46:48.287Z,1.60
2018-06-12T10:49:16.716Z,1.32
2018-06-12T10:51:45.101Z,0.80
2018-06-12T10:54:13.540Z,1.15
2018-06-12T10:56:41.640Z,2.52
2018-06-12T10:59:10.065Z,0.80
2018-06-12T11:01:38.545Z,1.15
2018-06-12T11:04:07.173Z,1.42
2018-06-12T11:06:35.552Z,0.90
2018-06-12T11:09:05.817Z,2.10
2018-06-12T11:11:34.292Z,1.15
2018-06-12T11:14:02.729Z,1.25
2018-06-12T11:16:31.117Z,1.40
2018-06-12T11:18:59.556Z,1.70
2018-06-12T11:21:27.952Z,1.40
2018-06-12T11:23:56.364Z,1.47
2018-06-12T11:26:24.761Z,1.40
2018-06-12T11:28:53.191Z,1.70
2018-06-12T11:31:21.629Z,1.50
2018-06-12T11:33:50.035Z,1.35
2018-06-12T11:36:18.506Z,1.60
2018-06-12T11:38:46.916Z,1.67
2018-06-12T11:41:15.292Z,1.50
2018-06-12T11:43:43.700Z,1.30
2018-06-12T11:46:11.917Z,1.35
2018-06-12T11:48:40.355Z,1.40
2018-06-12T11:51:08.756Z,1.62
2018-06-12T11:53:37.172Z,1.05
2018-06-12T11:56:05.732Z,2.00
2018-06-12T11:58:34.174Z,2.17
2018-06-12T12:01:02.268Z,1.80
2018-06-12T12:03:30.645Z,1.40
2018-06-12T12:05:59.106Z,1.90
2018-06-12T12:08:27.496Z,1.37
2018-06-12T12:10:55.935Z,1.67
2018-06-12T12:13:24.044Z,1.32
2018-06-12T12:15:52.469Z,1.65
2018-06-12T12:18:20.897Z,1.47
2018-06-12T12:20:49.293Z,1.37
2018-06-12T12:23:17.794Z,1.72
2018-06-12T12:25:46.201Z,1.22
2018-06-12T12:28:14.590Z,3.87
2018-06-12T12:30:43.010Z,1.32
2018-06-12T12:33:11.397Z,1.07
2018-06-12T12:35:39.877Z,1.40
2018-06-12T12:38:08.325Z,1.10
2018-06-12T12:40:36.752Z,1.15
2018-06-12T12:43:05.300Z,1.52
2018-06-12T12:45:33.712Z,1.20
2018-06-12T12:48:02.109Z,1.62
2018-06-12T12:50:30.544Z,1.22
2018-06-12T12:52:58.972Z,1.15
2018-06-12T12:55:27.436Z,1.70
2018-06-12T12:57:55.883Z,1.47
2018-06-12T13:00:24.494Z,1.20
2018-06-12T13:02:52.887Z,1.20
2018-06-12T13:05:21.296Z,1.30
2018-06-12T13:07:49.682Z,1.20
2018-06-12T13:10:18.088Z,1.32
2018-06-12T13:12:46.594Z,1.55
2018-06-12T13:15:15.012Z,0.88
2018-06-12T13:17:43.399Z,1.50
2018-06-12T13:20:11.849Z,0.95
2018-06-12T13:22:40.208Z,0.88
2018-06-12T13:25:08.617Z,1.00
2018-06-12T13:27:36.993Z,1.00
2018-06-12T13:30:05.437Z,1.40
2018-06-12T13:32:33.865Z,1.20
2018-06-12T13:35:02.237Z,1.12
2018-06-12T13:37:30.640Z,1.00
2018-06-12T13:39:59.020Z,1.05
2018-06-12T13:42:27.518Z,1.00
2018-06-12T13:44:55.949Z,1.42
2018-06-12T13:47:24.365Z,1.00
2018-06-12T13:49:52.761Z,2.10
2018-06-12T13:52:21.189Z,1.22
2018-06-12T13:54:49.346Z,0.98
2018-06-12T13:57:17.745Z,0.90
2018-06-12T13:59:46.271Z,1.20
2018-06-12T14:02:14.685Z,1.10
2018-06-12T14:04:42.788Z,1.00
2018-06-12T14:07:11.202Z,1.42
2018-06-12T14:09:39.589Z,0.90
2018-06-12T14:12:08.017Z,1.45
2018-06-12T14:14:36.513Z,1.00
2018-06-12T14:17:04.988Z,1.07
2018-06-12T14:19:33.398Z,1.02
2018-06-12T14:22:01.850Z,1.15
2018-06-12T14:24:30.228Z,1.37
2018-06-12T14:26:58.652Z,1.15
2018-06-12T14:29:27.060Z,1.05
2018-06-12T14:31:55.501Z,1.20
2018-06-12T14:34:23.875Z,1.22
2018-06-12T14:36:52.296Z,1.02
2018-06-12T14:39:20.709Z,1.22
2018-06-12T14:41:49.181Z,1.52
2018-06-12T14:44:17.570Z,1.30
2018-06-12T14:46:45.992Z,1.30
2018-06-12T14:49:14.386Z,1.32
2018-06-12T14:51:42.801Z,1.37
2018-06-12T14:54:11.181Z,1.47
2018-06-12T14:56:39.596Z,1.30
2018-06-12T14:59:08.507Z,2.08
2018-06-12T15:01:36.940Z,1.80
2018-06-12T15:04:05.362Z,1.30
2018-06-12T15:06:33.777Z,1.47
2018-06-12T15:09:02.239Z,1.52
2018-06-12T15:11:30.689Z,1.77
2018-06-12T15:13:59.069Z,1.20
2018-06-12T15:16:27.478Z,1.37
2018-06-12T15:18:55.936Z,1.40
2018-06-12T15:21:24.377Z,1.32
2018-06-12T15:23:52.826Z,1.17
2018-06-12T15:26:21.231Z,1.32
2018-06-12T15:28:49.796Z,1.42
2018-06-12T15:31:18.201Z,1.30
2018-06-12T15:33:46.380Z,1.00
2018-06-12T15:36:14.798Z,1.10
2018-06-12T15:38:43.221Z,0.78
2018-06-12T15:41:11.630Z,0.98
2018-06-12T15:43:40.051Z,1.20
2018-06-12T15:46:08.440Z,1.42
2018-06-12T15:48:36.865Z,1.60
2018-06-12T15:51:05.291Z,1.10
2018-06-12T15:53:33.713Z,1.50
2018-06-12T15:56:02.149Z,1.50
2018-06-12T15:58:30.656Z,1.90
2018-06-12T16:00:59.078Z,2.05
2018-06-12T16:03:27.994Z,2.58
2018-06-12T16:05:56.585Z,2.70
2018-06-12T16:08:25.017Z,2.45
2018-06-12T16:10:53.409Z,3.27
2018-06-12T16:13:21.813Z,2.40
2018-06-12T16:15:50.328Z,2.00
2018-06-12T16:18:18.841Z,1.95
2018-06-12T16:20:47.313Z,1.05
2018-06-12T16:23:15.713Z,1.52
2018-06-12T16:25:44.116Z,1.37
2018-06-12T16:28:12.537Z,0.90
2018-06-12T16:30:40.945Z,1.07
2018-06-12T16:33:09.425Z,1.50
2018-06-12T16:35:37.836Z,0.95
2018-06-12T16:38:06.473Z,0.72
2018-06-12T16:40:34.879Z,0.80
2018-06-12T16:43:03.297Z,0.85
2018-06-12T16:45:31.704Z,0.98
2018-06-12T16:48:00.146Z,1.32
2018-06-12T16:50:28.555Z,0.85
2018-06-12T16:52:56.983Z,1.07
2018-06-12T16:55:25.385Z,1.40
2018-06-12T16:57:53.828Z,1.17
2018-06-12T17:00:22.329Z,1.17
2018-06-12T17:02:51.032Z,1.25
2018-06-12T17:05:19.513Z,1.15
2018-06-12T17:07:47.604Z,1.00
2018-06-12T17:10:16.055Z,0.72
2018-06-12T17:12:44.496Z,0.93
2018-06-12T17:15:12.905Z,0.70
2018-06-12T17:17:41.306Z,0.55
2018-06-12T17:20:09.753Z,0.60
2018-06-12T17:22:38.149Z,0.80
2018-06-12T17:25:06.908Z,0.80
2018-06-12T17:27:35.318Z,0.80
2018-06-12T17:30:03.797Z,0.70
2018-06-12T17:32:32.196Z,0.80
2018-06-12T17:35:00.598Z,0.90
2018-06-12T17:37:29.070Z,1.05
2018-06-12T17:39:57.506Z,0.70
2018-06-12T17:42:25.888Z,0.80
2018-06-12T17:44:54.300Z,0.70
2018-06-12T17:47:22.686Z,1.02
2018-06-12T17:49:51.100Z,0.90
2018-06-12T17:52:19.505Z,1.05
2018-06-12T17:54:47.931Z,0.85
2018-06-12T17:57:16.329Z,0.93
2018-06-12T17:59:44.464Z,1.07
2018-06-12T18:02:12.853Z,1.47
2018-06-12T18:04:41.301Z,1.10
2018-06-12T18:07:09.698Z,1.15
2018-06-12T18:09:38.509Z,0.95
2018-06-12T18:12:06.941Z,1.17
2018-06-12T18:14:35.346Z,0.70
2018-06-12T18:17:03.792Z,1.10
2018-06-12T18:19:32.222Z,0.98
2018-06-12T18:22:00.684Z,0.85
2018-06-12T18:24:29.181Z,1.20
2018-06-12T18:26:57.586Z,0.90
2018-06-12T18:29:26.130Z,0.78
2018-06-12T18:31:54.566Z,1.00
2018-06-12T18:34:23.013Z,0.88
2018-06-12T18:36:51.436Z,1.82
2018-06-12T18:39:19.585Z,1.40
2018-06-12T18:41:47.988Z,1.00
2018-06-12T18:44:16.191Z,0.90
2018-06-12T18:46:44.593Z,1.27
2018-06-12T18:49:13.012Z,1.00
2018-06-12T18:51:41.438Z,0.90
2018-06-12T18:54:09.860Z,1.07
2018-06-12T18:56:38.252Z,1.25
2018-06-12T18:59:06.701Z,1.10
2018-06-12T19:01:35.096Z,0.98
2018-06-12T19:04:03.499Z,1.20
2018-06-12T19:06:32.192Z,1.10
2018-06-12T19:09:00.525Z,1.10
2018-06-12T19:11:28.658Z,1.10
2018-06-12T19:13:57.249Z,0.90
2018-06-12T19:16:25.669Z,1.20
2018-06-12T19:18:54.405Z,1.00
2018-06-12T19:21:22.815Z,0.82
2018-06-12T19:23:50.961Z,0.75
2018-06-12T19:26:19.391Z,0.75
2018-06-12T19:28:47.845Z,0.70
2018-06-12T19:31:16.261Z,0.80
2018-06-12T19:33:44.877Z,0.93
2018-06-12T19:36:13.288Z,0.70
2018-06-12T19:38:41.693Z,0.85
2018-06-12T19:41:10.185Z,0.93
2018-06-12T19:43:38.584Z,0.68
2018-06-12T19:46:06.980Z,0.60
2018-06-12T19:48:35.389Z,0.60
2018-06-12T19:51:03.841Z,0.50
2018-06-12T19:53:32.252Z,0.72
2018-06-12T19:56:00.661Z,0.45
2018-06-12T19:58:29.070Z,0.88
2018-06-12T20:00:57.501Z,0.50
2018-06-12T20:03:25.928Z,1.20
2018-06-12T20:05:54.377Z,0.85
2018-06-12T20:08:22.758Z,0.70
2018-06-12T20:10:51.305Z,1.00
2018-06-12T20:13:19.398Z,0.50
2018-06-12T20:15:47.898Z,0.50
2018-06-12T20:18:16.292Z,0.50
2018-06-12T20:20:44.757Z,0.50
2018-06-12T20:23:13.177Z,0.70
2018-06-12T20:25:41.593Z,0.50
2018-06-12T20:28:09.749Z,0.50
2018-06-12T20:30:38.185Z,0.50
2018-06-12T20:33:06.626Z,1.00
2018-06-12T20:35:34.945Z,0.95
2018-06-12T20:38:03.375Z,0.50
2018-06-12T20:40:31.772Z,0.60
2018-06-12T20:43:00.185Z,0.70
2018-06-12T20:45:28.683Z,0.60
2018-06-12T20:47:57.197Z,0.70
2018-06-12T20:50:25.543Z,0.88
2018-06-12T20:52:53.988Z,0.98
2018-06-12T20:55:22.447Z,0.80
2018-06-12T20:57:50.926Z,0.93
2018-06-12T21:00:19.403Z,0.88
2018-06-12T21:02:47.923Z,0.75
2018-06-12T21:05:16.304Z,0.88
2018-06-12T21:07:44.728Z,1.00
2018-06-12T21:10:13.133Z,0.70
2018-06-12T21:12:41.601Z,1.25
2018-06-12T21:15:10.008Z,0.98
2018-06-12T21:17:38.431Z,0.68
2018-06-12T21:20:06.848Z,1.00
2018-06-12T21:22:35.269Z,0.90
2018-06-12T21:25:03.742Z,1.00
2018-06-12T21:27:32.176Z,1.00
2018-06-12T21:30:00.577Z,1.10
2018-06-12T21:32:28.989Z,0.85
2018-06-12T21:34:57.382Z,1.15
2018-06-12T21:37:25.808Z,1.22
2018-06-12T21:39:54.185Z,1.40
2018-06-12T21:42:22.607Z,1.50
2018-06-12T21:44:51.092Z,1.72
2018-06-12T21:47:19.224Z,1.50
2018-06-12T21:49:47.605Z,1.35
2018-06-12T21:52:16.022Z,1.05
2018-06-12T21:54:44.412Z,1.20
2018-06-12T21:57:12.807Z,1.40
2018-06-12T21:59:41.256Z,1.10
2018-06-12T22:02:09.691Z,1.40
2018-06-12T22:04:38.117Z,1.27
2018-06-12T22:07:06.541Z,2.75
2018-06-12T22:09:34.981Z,0.93
2018-06-12T22:12:03.393Z,1.17
2018-06-12T22:14:31.921Z,1.00
2018-06-12T22:17:00.355Z,1.00
2018-06-12T22:19:28.754Z,1.07
2018-06-12T22:21:56.891Z,1.12
2018-06-12T22:24:26.953Z,1.00
2018-06-12T22:26:55.405Z,0.90
2018-06-12T22:29:23.829Z,1.10
2018-06-12T22:31:52.217Z,1.25
2018-06-12T22:34:20.625Z,1.05
2018-06-12T22:36:49.042Z,1.20
2018-06-12T22:39:18.235Z,1.12
2018-06-12T22:41:46.678Z,1.17
2018-06-12T22:44:15.092Z,1.02
2018-06-12T22:46:43.517Z,1.00
2018-06-12T22:49:12.017Z,1.22
2018-06-12T22:51:40.423Z,0.95
2018-06-12T22:54:08.833Z,1.00
2018-06-12T22:56:37.228Z,1.10
2018-06-12T22:59:05.689Z,1.00
2018-06-12T23:01:34.112Z,1.10
2018-06-12T23:04:02.517Z,1.30
2018-06-12T23:06:30.914Z,1.07
2018-06-12T23:08:59.341Z,1.17
2018-06-12T23:11:27.741Z,1.32
2018-06-12T23:13:56.185Z,1.07
2018-06-12T23:16:24.572Z,1.25
2018-06-12T23:18:53.060Z,0.80
2018-06-12T23:21:46.169Z,1.10
2018-06-12T23:24:14.627Z,1.32
2018-06-12T23:26:43.069Z,1.60
2018-06-12T23:29:11.513Z,2.00
2018-06-12T23:31:39.929Z,1.30
2018-06-12T23:34:08.361Z,1.17
2018-06-12T23:36:36.752Z,1.60
2018-06-12T23:39:06.990Z,1.65
2018-06-12T23:41:35.376Z,1.65
2018-06-12T23:44:03.894Z,1.40
2018-06-12T23:46:32.473Z,1.42
2018-06-12T23:49:00.936Z,1.40
2018-06-12T23:51:29.319Z,1.10
2018-06-12T23:53:57.786Z,1.47
2018-06-12T23:56:26.246Z,1.42
2018-06-12T23:58:54.404Z,1.20
